createdAt,value
2018-11-05T00:00:23.387Z,7.69
2018-11-05T00:01:33.512Z,7.72
2018-11-05T00:02:43.085Z,7.77
2018-11-05T00:03:52.659Z,7.83
2018-11-05T00:05:02.834Z,7.77
2018-11-05T00:06:12.965Z,7.9
2018-11-05T00:07:22.822Z,7.99
2018-11-05T00:08:32.962Z,7.9
2018-11-05T00:09:42.542Z,7.9
2018-11-05T00:10:52.660Z,7.91
2018-11-05T00:12:02.830Z,7.88
2018-11-05T00:13:12.953Z,7.96
2018-11-05T00:14:22.806Z,7.9
2018-11-05T00:15:32.941Z,7.8
2018-11-05T00:16:43.070Z,7.83
2018-11-05T00:17:53.210Z,7.77
2018-11-05T00:19:03.069Z,7.81
2018-11-05T00:20:12.667Z,7.75
2018-11-05T00:21:22.262Z,7.74
2018-11-05T00:22:32.112Z,7.75
2018-11-05T00:23:41.413Z,7.69
2018-11-05T00:24:51.542Z,7.78
2018-11-05T00:26:00.841Z,7.67
2018-11-05T00:27:10.696Z,7.61
2018-11-05T00:28:20.547Z,7.61
2018-11-05T00:29:30.403Z,7.66
2018-11-05T00:30:40.535Z,7.66
2018-11-05T00:31:50.388Z,7.69
2018-11-05T00:33:00.511Z,7.64
2018-11-05T00:34:10.361Z,7.61
2018-11-05T00:35:19.944Z,7.66
2018-11-05T00:36:30.122Z,7.69
2018-11-05T00:37:40.254Z,7.7
2018-11-05T00:38:50.386Z,7.61
2018-11-05T00:39:59.968Z,7.56
2018-11-05T00:41:09.266Z,7.64
2018-11-05T00:42:19.117Z,7.58
2018-11-05T00:43:29.243Z,7.58
2018-11-05T00:44:39.091Z,7.58
2018-11-05T00:45:48.846Z,7.51
2018-11-05T00:46:58.998Z,7.51
2018-11-05T00:48:08.859Z,7.51
2018-11-05T00:49:18.722Z,7.46
2018-11-05T00:50:28.312Z,7.39
2018-11-05T00:51:38.165Z,7.37
2018-11-05T00:52:48.026Z,7.37
2018-11-05T00:53:57.872Z,7.44
2018-11-05T00:55:07.181Z,7.4
2018-11-05T00:56:16.478Z,7.33
2018-11-05T00:57:26.121Z,7.26
2018-11-05T00:58:36.303Z,7.29
2018-11-05T00:59:46.424Z,7.28
2018-11-05T01:00:56.288Z,7.18
2018-11-05T01:02:06.420Z,7.11
2018-11-05T01:03:16.003Z,7.22
2018-11-05T01:04:26.170Z,7.19
2018-11-05T01:05:36.022Z,7.14
2018-11-05T01:06:46.155Z,7.14
2018-11-05T01:07:55.736Z,7.15
2018-11-05T01:09:05.639Z,7.19
2018-11-05T01:10:15.764Z,7.18
2018-11-05T01:11:25.893Z,7.15
2018-11-05T01:12:35.475Z,7.18
2018-11-05T01:13:45.104Z,7.11
2018-11-05T01:14:55.234Z,7.15
2018-11-05T01:16:04.811Z,7.08
2018-11-05T01:17:14.933Z,7.13
2018-11-05T01:18:25.058Z,7
2018-11-05T01:19:34.358Z,7.08
2018-11-05T01:20:44.492Z,7.05
2018-11-05T01:21:54.617Z,7.11
2018-11-05T01:23:04.193Z,7.05
2018-11-05T01:24:14.047Z,7.05
2018-11-05T01:25:23.899Z,7.13
2018-11-05T01:26:33.767Z,7.11
2018-11-05T01:27:43.895Z,7.05
2018-11-05T01:28:54.030Z,7.11
2018-11-05T01:30:04.168Z,7.05
2018-11-05T01:31:14.026Z,7.1
2018-11-05T01:32:24.153Z,7.1
2018-11-05T01:33:34.280Z,7.14
2018-11-05T01:34:44.131Z,7.11
2018-11-05T01:35:54.264Z,7.15
2018-11-05T01:37:04.357Z,7.15
2018-11-05T01:38:14.390Z,7.18
2018-11-05T01:39:24.525Z,7.25
2018-11-05T01:40:33.825Z,7.25
2018-11-05T01:41:43.951Z,7.19
2018-11-05T01:42:54.075Z,7.21
2018-11-05T01:44:03.652Z,7.01
2018-11-05T01:45:13.507Z,7.18
2018-11-05T01:46:23.360Z,7.1
2018-11-05T01:47:33.536Z,7.03
2018-11-05T01:48:43.667Z,7.04
2018-11-05T01:49:53.795Z,7.04
2018-11-05T01:51:03.370Z,7.01
2018-11-05T01:52:13.492Z,7.04
2018-11-05T01:53:23.068Z,7.05
2018-11-05T01:54:32.919Z,7.01
2018-11-05T01:55:43.043Z,7.07
2018-11-05T01:56:53.172Z,7.01
2018-11-05T01:58:03.027Z,6.97
2018-11-05T01:59:12.880Z,6.96
2018-11-05T02:00:23.008Z,7.07
2018-11-05T02:01:32.584Z,6.97
2018-11-05T02:02:42.210Z,6.93
2018-11-05T02:03:52.059Z,6.86
2018-11-05T02:05:01.906Z,6.83
2018-11-05T02:06:11.766Z,6.77
2018-11-05T02:07:21.891Z,6.74
2018-11-05T02:08:31.738Z,6.83
2018-11-05T02:09:41.589Z,6.83
2018-11-05T02:10:51.163Z,6.78
2018-11-05T02:12:01.019Z,6.7
2018-11-05T02:13:10.986Z,6.71
2018-11-05T02:14:20.623Z,6.75
2018-11-05T02:15:30.484Z,6.8
2018-11-05T02:16:40.330Z,6.8
2018-11-05T02:17:50.455Z,6.75
2018-11-05T02:19:00.356Z,6.8
2018-11-05T02:20:09.930Z,6.75
2018-11-05T02:21:19.791Z,6.74
2018-11-05T02:22:29.363Z,6.78
2018-11-05T02:23:38.940Z,6.82
2018-11-05T02:24:49.086Z,6.78
2018-11-05T02:25:59.214Z,6.72
2018-11-05T02:27:09.272Z,6.75
2018-11-05T02:28:19.602Z,6.71
2018-11-05T02:29:29.723Z,6.71
2018-11-05T02:30:39.303Z,6.71
2018-11-05T02:31:49.435Z,6.71
2018-11-05T02:32:59.308Z,6.62
2018-11-05T02:34:09.440Z,6.62
2018-11-05T02:35:19.018Z,6.64
2018-11-05T02:36:28.602Z,6.57
2018-11-05T02:37:38.462Z,6.56
2018-11-05T02:38:48.592Z,6.62
2018-11-05T02:39:58.724Z,6.57
2018-11-05T02:41:08.576Z,6.62
2018-11-05T02:42:18.700Z,6.68
2018-11-05T02:43:28.555Z,6.57
2018-11-05T02:44:38.134Z,6.67
2018-11-05T02:45:47.987Z,6.7
2018-11-05T02:46:57.867Z,6.71
2018-11-05T02:48:07.995Z,6.57
2018-11-05T02:49:17.846Z,6.56
2018-11-05T02:50:27.695Z,6.62
2018-11-05T02:51:37.841Z,6.6
2018-11-05T02:52:47.980Z,6.62
2018-11-05T02:53:58.119Z,6.57
2018-11-05T02:55:08.273Z,6.71
2018-11-05T02:56:18.137Z,6.6
2018-11-05T02:57:28.265Z,6.68
2018-11-05T02:58:38.387Z,6.59
2018-11-05T02:59:48.532Z,6.6
2018-11-05T03:00:58.384Z,6.57
2018-11-05T03:02:08.240Z,6.54
2018-11-05T03:03:18.342Z,6.57
2018-11-05T03:04:28.977Z,6.68
2018-11-05T03:05:39.108Z,6.59
2018-11-05T03:06:48.685Z,6.6
2018-11-05T03:07:58.807Z,6.6
2018-11-05T03:09:08.675Z,6.65
2018-11-05T03:10:18.828Z,6.64
2018-11-05T03:11:29.008Z,6.57
2018-11-05T03:12:39.138Z,6.59
2018-11-05T03:13:49.272Z,6.64
2018-11-05T03:14:59.398Z,6.59
2018-11-05T03:16:09.564Z,6.57
2018-11-05T03:17:19.421Z,6.7
2018-11-05T03:18:29.273Z,6.71
2018-11-05T03:19:39.406Z,6.71
2018-11-05T03:20:49.262Z,6.72
2018-11-05T03:21:59.393Z,6.72
2018-11-05T03:23:09.255Z,6.75
2018-11-05T03:24:19.113Z,6.8
2018-11-05T03:25:28.970Z,6.82
2018-11-05T03:26:38.820Z,6.74
2018-11-05T03:27:48.689Z,6.75
2018-11-05T03:28:58.829Z,6.86
2018-11-05T03:30:08.428Z,6.78
2018-11-05T03:31:18.590Z,6.82
2018-11-05T03:32:27.890Z,6.8
2018-11-05T03:33:37.743Z,6.83
2018-11-05T03:34:47.875Z,6.92
2018-11-05T03:35:58.002Z,6.89
2018-11-05T03:37:08.645Z,6.93
2018-11-05T03:38:18.519Z,6.93
2018-11-05T03:39:28.382Z,7
2018-11-05T03:40:38.510Z,7.07
2018-11-05T03:41:48.101Z,7.08
2018-11-05T03:42:58.233Z,7.19
2018-11-05T03:44:08.363Z,7.14
2018-11-05T03:45:18.257Z,7.21
2018-11-05T03:46:28.404Z,7.18
2018-11-05T03:47:38.531Z,7.29
2018-11-05T03:48:48.125Z,7.26
2018-11-05T03:49:58.254Z,7.37
2018-11-05T03:51:08.393Z,7.37
2018-11-05T03:52:18.523Z,7.31
2018-11-05T03:53:28.656Z,7.31
2018-11-05T03:54:38.784Z,7.33
2018-11-05T03:55:49.370Z,7.36
2018-11-05T03:56:59.619Z,7.28
2018-11-05T03:58:08.980Z,7.26
2018-11-05T03:59:18.559Z,7.29
2018-11-05T04:00:28.429Z,7.18
2018-11-05T04:01:38.286Z,7.23
2018-11-05T04:02:47.865Z,7.13
2018-11-05T04:03:57.452Z,7.13
2018-11-05T04:05:07.051Z,7.29
2018-11-05T04:06:17.329Z,7.29
2018-11-05T04:07:27.190Z,7.23
2018-11-05T04:08:37.036Z,7.23
2018-11-05T04:09:46.900Z,7.23
2018-11-05T04:10:56.761Z,7.31
2018-11-05T04:12:06.622Z,7.32
2018-11-05T04:13:16.485Z,7.29
2018-11-05T04:14:26.073Z,7.29
2018-11-05T04:15:36.792Z,7.26
2018-11-05T04:16:47.492Z,7.28
2018-11-05T04:17:57.638Z,7.28
2018-11-05T04:19:07.496Z,7.33
2018-11-05T04:20:17.361Z,7.29
2018-11-05T04:21:26.935Z,7.25
2018-11-05T04:22:36.794Z,7.15
2018-11-05T04:23:46.649Z,7.21
2018-11-05T04:24:56.221Z,7.14
2018-11-05T04:26:06.077Z,7.15
2018-11-05T04:27:16.211Z,7.19
2018-11-05T04:28:26.073Z,7.18
2018-11-05T04:29:36.270Z,7.21
2018-11-05T04:30:46.127Z,7.18
2018-11-05T04:31:56.259Z,7.15
2018-11-05T04:33:06.409Z,7.08
2018-11-05T04:34:16.618Z,7.11
2018-11-05T04:35:26.760Z,7.14
2018-11-05T04:36:36.621Z,7.1
2018-11-05T04:37:46.754Z,7.01
2018-11-05T04:38:56.880Z,7.05
2018-11-05T04:40:06.456Z,7.04
2018-11-05T04:41:16.313Z,7.04
2018-11-05T04:42:26.448Z,7.11
2018-11-05T04:43:36.623Z,7.08
2018-11-05T04:44:46.745Z,7.07
2018-11-05T04:45:56.878Z,7.11
2018-11-05T04:47:06.730Z,7.08
2018-11-05T04:48:16.860Z,7.08
2018-11-05T04:49:26.178Z,7.04
2018-11-05T04:50:36.319Z,7.03
2018-11-05T04:51:46.445Z,6.97
2018-11-05T04:52:56.580Z,7
2018-11-05T04:54:06.713Z,6.93
2018-11-05T04:55:16.857Z,6.95
2018-11-05T04:56:26.985Z,6.89
2018-11-05T04:57:37.114Z,6.87
2018-11-05T04:58:46.970Z,6.9
2018-11-05T04:59:56.832Z,6.92
2018-11-05T05:01:06.137Z,6.86
2018-11-05T05:02:15.991Z,6.87
2018-11-05T05:03:25.567Z,6.92
2018-11-05T05:04:35.947Z,6.85
2018-11-05T05:05:46.078Z,6.92
2018-11-05T05:06:55.669Z,6.85
2018-11-05T05:08:05.522Z,6.85
2018-11-05T05:09:15.377Z,6.9
2018-11-05T05:10:25.508Z,6.82
2018-11-05T05:11:35.639Z,6.77
2018-11-05T05:12:45.766Z,6.77
2018-11-05T05:13:55.617Z,6.87
2018-11-05T05:15:05.474Z,6.8
2018-11-05T05:16:15.882Z,6.8
2018-11-05T05:17:26.313Z,6.85
2018-11-05T05:18:36.440Z,6.8
2018-11-05T05:19:46.293Z,6.92
2018-11-05T05:20:55.869Z,6.87
2018-11-05T05:22:05.722Z,6.96
2018-11-05T05:23:16.007Z,6.9
2018-11-05T05:24:26.138Z,6.93
2018-11-05T05:25:36.271Z,6.95
2018-11-05T05:26:45.861Z,6.97
2018-11-05T05:27:55.716Z,7.03
2018-11-05T05:29:05.568Z,6.97
2018-11-05T05:30:15.433Z,7.13
2018-11-05T05:31:25.563Z,7.03
2018-11-05T05:32:35.695Z,7.07
2018-11-05T05:33:46.233Z,7.03
2018-11-05T05:34:55.427Z,7.1
2018-11-05T05:36:05.563Z,7.08
2018-11-05T05:37:15.412Z,6.97
2018-11-05T05:38:25.268Z,6.97
2018-11-05T05:39:35.408Z,7.07
2018-11-05T05:40:45.421Z,6.97
2018-11-05T05:41:55.437Z,7.01
2018-11-05T05:43:05.564Z,7.01
2018-11-05T05:44:15.417Z,7.1
2018-11-05T05:45:25.269Z,7.1
2018-11-05T05:46:35.120Z,6.97
2018-11-05T05:47:45.264Z,6.95
2018-11-05T05:48:55.393Z,7
2018-11-05T05:50:05.088Z,6.9
2018-11-05T05:51:15.529Z,6.97
2018-11-05T05:52:25.655Z,7.05
2018-11-05T05:53:35.509Z,6.97
2018-11-05T05:54:45.647Z,7.1
2018-11-05T05:55:55.217Z,7.11
2018-11-05T05:57:05.340Z,7.03
2018-11-05T05:58:15.461Z,7.1
2018-11-05T05:59:25.333Z,7.01
2018-11-05T06:00:35.185Z,7.03
2018-11-05T06:01:45.326Z,7.05
2018-11-05T06:02:55.180Z,7.1
2018-11-05T06:04:05.044Z,7
2018-11-05T06:05:15.197Z,7.07
2018-11-05T06:06:25.584Z,7.07
2018-11-05T06:07:35.942Z,7
2018-11-05T06:08:46.066Z,6.95
2018-11-05T06:09:55.647Z,6.9
2018-11-05T06:11:04.678Z,6.92
2018-11-05T06:12:14.795Z,6.78
2018-11-05T06:13:24.917Z,6.83
2018-11-05T06:14:34.495Z,6.71
2018-11-05T06:15:44.214Z,6.85
2018-11-05T06:16:54.541Z,6.75
2018-11-05T06:18:04.660Z,6.75
2018-11-05T06:19:14.232Z,6.68
2018-11-05T06:20:24.356Z,6.56
2018-11-05T06:21:33.946Z,6.62
2018-11-05T06:22:43.904Z,6.64
2018-11-05T06:23:54.031Z,6.64
2018-11-05T06:25:03.919Z,6.65
2018-11-05T06:26:13.503Z,6.64
2018-11-05T06:27:23.086Z,6.57
2018-11-05T06:28:33.054Z,6.5
2018-11-05T06:29:42.807Z,6.46
2018-11-05T06:30:52.935Z,6.47
2018-11-05T06:32:03.076Z,6.44
2018-11-05T06:33:12.939Z,6.46
2018-11-05T06:34:22.921Z,6.43
2018-11-05T06:35:32.919Z,6.46
2018-11-05T06:36:42.780Z,6.43
2018-11-05T06:37:52.911Z,6.38
2018-11-05T06:39:02.488Z,6.36
2018-11-05T06:40:12.060Z,6.39
2018-11-05T06:41:42.889Z,6.47
2018-11-05T06:42:53.737Z,6.5
2018-11-05T06:44:03.893Z,6.39
2018-11-05T06:45:14.503Z,6.47
2018-11-05T06:46:24.475Z,6.49
2018-11-05T06:47:34.337Z,6.43
2018-11-05T06:48:44.266Z,6.44
2018-11-05T06:49:54.157Z,6.47
2018-11-05T06:51:03.724Z,6.46
2018-11-05T06:52:13.847Z,6.46
2018-11-05T06:53:23.694Z,6.43
2018-11-05T06:54:33.551Z,6.39
2018-11-05T06:55:43.395Z,6.49
2018-11-05T06:56:53.242Z,6.5
2018-11-05T06:58:03.096Z,6.36
2018-11-05T06:59:13.224Z,6.41
2018-11-05T07:00:23.089Z,6.44
2018-11-05T07:01:33.239Z,6.44
2018-11-05T07:02:43.447Z,6.52
2018-11-05T07:03:53.025Z,6.52
2018-11-05T07:05:03.148Z,6.5
2018-11-05T07:06:13.002Z,6.53
2018-11-05T07:07:22.586Z,6.52
2018-11-05T07:08:32.721Z,6.59
2018-11-05T07:09:42.906Z,6.62
2018-11-05T07:10:53.280Z,6.72
2018-11-05T07:12:03.421Z,6.65
2018-11-05T07:13:13.557Z,6.83
2018-11-05T07:14:23.758Z,6.72
2018-11-05T07:15:33.897Z,6.78
2018-11-05T07:16:44.029Z,6.74
2018-11-05T07:17:53.902Z,6.86
2018-11-05T07:19:05.178Z,6.83
2018-11-05T07:20:16.481Z,6.95
2018-11-05T07:21:26.345Z,6.92
2018-11-05T07:22:36.193Z,6.92
2018-11-05T07:23:46.314Z,6.95
2018-11-05T07:24:56.163Z,6.87
2018-11-05T07:26:06.021Z,6.93
2018-11-05T07:27:16.159Z,6.83
2018-11-05T07:28:26.009Z,6.89
2018-11-05T07:29:36.142Z,6.95
2018-11-05T07:30:45.714Z,6.87
2018-11-05T07:31:55.837Z,6.9
2018-11-05T07:33:05.536Z,6.92
2018-11-05T07:34:15.472Z,6.92
2018-11-05T07:35:25.612Z,6.87
2018-11-05T07:36:35.472Z,6.85
2018-11-05T07:37:45.322Z,6.9
2018-11-05T07:38:55.497Z,6.86
2018-11-05T07:40:05.348Z,6.86
2018-11-05T07:41:15.196Z,6.78
2018-11-05T07:42:25.333Z,6.82
2018-11-05T07:43:35.185Z,6.89
2018-11-05T07:44:45.312Z,6.89
2018-11-05T07:45:55.166Z,6.93
2018-11-05T07:47:05.021Z,6.92
2018-11-05T07:48:14.870Z,6.97
2018-11-05T07:49:24.998Z,7
2018-11-05T07:50:34.676Z,6.97
2018-11-05T07:51:44.786Z,6.97
2018-11-05T07:52:54.913Z,6.92
2018-11-05T07:54:05.036Z,7.01
2018-11-05T07:55:14.936Z,7.1
2018-11-05T07:56:25.444Z,7.04
2018-11-05T07:57:35.593Z,7.03
2018-11-05T07:58:44.893Z,7.14
2018-11-05T07:59:55.031Z,7.22
2018-11-05T08:01:04.891Z,7.14
2018-11-05T08:02:14.809Z,7.22
2018-11-05T08:03:24.384Z,7.25
2018-11-05T08:04:33.955Z,7.22
2018-11-05T08:05:43.257Z,7.25
2018-11-05T08:06:53.105Z,7.31
2018-11-05T08:08:03.007Z,7.41
2018-11-05T08:09:12.947Z,7.4
2018-11-05T08:10:22.244Z,7.39
2018-11-05T08:11:32.368Z,7.44
2018-11-05T08:12:42.498Z,7.47
2018-11-05T08:13:51.848Z,7.48
2018-11-05T08:15:01.985Z,7.53
2018-11-05T08:16:11.582Z,7.56
2018-11-05T08:17:21.713Z,7.64
2018-11-05T08:18:31.562Z,7.58
2018-11-05T08:19:40.919Z,7.59
2018-11-05T08:20:51.051Z,7.51
2018-11-05T08:22:01.182Z,7.51
2018-11-05T08:23:10.767Z,7.51
2018-11-05T08:24:20.888Z,7.48
2018-11-05T08:25:31.074Z,7.55
2018-11-05T08:26:40.941Z,7.48
2018-11-05T08:27:50.795Z,7.48
2018-11-05T08:29:00.926Z,7.48
2018-11-05T08:30:10.779Z,7.51
2018-11-05T08:31:20.966Z,7.64
2018-11-05T08:32:30.812Z,7.5
2018-11-05T08:33:40.661Z,7.61
2018-11-05T08:34:50.241Z,7.55
2018-11-05T08:35:59.863Z,7.64
2018-11-05T08:37:09.785Z,7.66
2018-11-05T08:38:19.654Z,7.59
2018-11-05T08:39:29.516Z,7.61
2018-11-05T08:40:39.666Z,7.61
2018-11-05T08:41:49.825Z,7.62
2018-11-05T08:43:00.001Z,7.7
2018-11-05T08:44:09.866Z,7.64
2018-11-05T08:45:19.716Z,7.64
2018-11-05T08:46:29.904Z,7.61
2018-11-05T08:47:40.082Z,7.69
2018-11-05T08:48:50.252Z,7.74
2018-11-05T08:49:59.843Z,7.7
2018-11-05T08:51:10.519Z,7.74
2018-11-05T08:52:21.698Z,7.74
2018-11-05T08:53:31.277Z,7.7
2018-11-05T08:54:41.178Z,7.69
2018-11-05T08:55:51.046Z,7.75
2018-11-05T08:57:01.168Z,7.69
2018-11-05T08:58:11.291Z,7.67
2018-11-05T08:59:21.145Z,7.61
2018-11-05T09:00:30.996Z,7.64
2018-11-05T09:01:40.845Z,7.59
2018-11-05T09:02:50.468Z,7.66
2018-11-05T09:04:00.319Z,7.56
2018-11-05T09:05:10.407Z,7.55
2018-11-05T09:06:20.897Z,7.56
2018-11-05T09:07:31.069Z,7.56
2018-11-05T09:08:40.927Z,7.59
2018-11-05T09:09:51.135Z,7.66
2018-11-05T09:11:03.583Z,7.66
2018-11-05T09:12:15.969Z,7.64
2018-11-05T09:13:26.010Z,7.69
2018-11-05T09:14:35.863Z,7.7
2018-11-05T09:15:45.989Z,7.78
2018-11-05T09:16:55.850Z,7.81
2018-11-05T09:18:05.993Z,7.78
2018-11-05T09:19:15.627Z,7.74
2018-11-05T09:20:25.842Z,7.88
2018-11-05T09:21:35.694Z,7.99
2018-11-05T09:22:45.543Z,7.98
2018-11-05T09:23:55.725Z,7.99
2018-11-05T09:25:05.573Z,7.95
2018-11-05T09:26:15.715Z,8.03
2018-11-05T09:27:25.298Z,8.06
2018-11-05T09:28:35.149Z,8.11
2018-11-05T09:29:44.776Z,8.06
2018-11-05T09:30:54.624Z,8.11
2018-11-05T09:32:04.757Z,8.16
2018-11-05T09:33:14.891Z,8.17
2018-11-05T09:34:24.746Z,8.2
2018-11-05T09:35:34.372Z,8.2
2018-11-05T09:36:43.942Z,8.2
2018-11-05T09:37:54.072Z,8.23
2018-11-05T09:39:03.648Z,8.2
2018-11-05T09:40:13.775Z,8.27
2018-11-05T09:41:24.005Z,8.24
2018-11-05T09:42:33.905Z,8.28
2018-11-05T09:43:44.126Z,8.28
2018-11-05T09:44:54.250Z,8.35
2018-11-05T09:46:03.825Z,8.38
2018-11-05T09:47:13.951Z,8.39
2018-11-05T09:48:23.529Z,8.42
2018-11-05T09:49:33.738Z,8.41
2018-11-05T09:50:44.086Z,8.39
2018-11-05T09:51:54.864Z,8.42
2018-11-05T09:53:04.495Z,8.44
2018-11-05T09:54:14.626Z,8.53
2018-11-05T09:55:24.542Z,8.42
2018-11-05T09:56:34.757Z,8.53
2018-11-05T09:57:44.892Z,8.6
2018-11-05T09:58:54.868Z,8.56
2018-11-05T10:00:04.721Z,8.56
2018-11-05T10:01:14.847Z,8.61
2018-11-05T10:02:24.703Z,8.57
2018-11-05T10:03:34.838Z,8.56
2018-11-05T10:04:47.239Z,8.66
2018-11-05T10:05:58.391Z,8.53
2018-11-05T10:07:08.247Z,8.69
2018-11-05T10:08:18.432Z,8.66
2018-11-05T10:09:28.336Z,8.71
2018-11-05T10:10:38.353Z,8.68
2018-11-05T10:11:48.480Z,8.68
2018-11-05T10:12:58.339Z,8.74
2018-11-05T10:14:08.472Z,8.75
2018-11-05T10:15:18.327Z,8.71
2018-11-05T10:16:28.713Z,8.75
2018-11-05T10:17:38.619Z,8.71
2018-11-05T10:18:48.474Z,8.75
2018-11-05T10:19:58.601Z,8.75
2018-11-05T10:21:08.189Z,8.69
2018-11-05T10:22:17.823Z,8.74
2018-11-05T10:23:27.676Z,8.75
2018-11-05T10:24:37.697Z,8.77
2018-11-05T10:25:47.945Z,8.78
2018-11-05T10:26:57.805Z,8.79
2018-11-05T10:28:07.940Z,8.92
2018-11-05T10:29:18.075Z,8.84
2018-11-05T10:30:28.232Z,8.86
2018-11-05T10:31:38.356Z,8.89
2018-11-05T10:32:47.669Z,8.86
2018-11-05T10:33:58.071Z,8.89
2018-11-05T10:35:07.653Z,8.82
2018-11-05T10:36:17.511Z,8.86
2018-11-05T10:37:27.085Z,8.81
2018-11-05T10:38:37.516Z,8.99
2018-11-05T10:39:47.104Z,8.96
2018-11-05T10:40:57.283Z,8.97
2018-11-05T10:42:07.416Z,8.99
2018-11-05T10:43:17.547Z,8.99
2018-11-05T10:44:27.133Z,8.99
2018-11-05T10:45:37.323Z,8.97
2018-11-05T10:46:47.451Z,9
2018-11-05T10:47:57.307Z,9
2018-11-05T10:49:06.895Z,9.03
2018-11-05T10:50:17.198Z,8.99
2018-11-05T10:51:28.119Z,9.05
2018-11-05T10:52:38.166Z,9.08
2018-11-05T10:53:48.021Z,9.11
2018-11-05T10:54:58.144Z,9.08
2018-11-05T10:56:08.001Z,9.09
2018-11-05T10:57:17.902Z,9.03
2018-11-05T10:58:27.958Z,9.12
2018-11-05T10:59:37.815Z,9.19
2018-11-05T11:00:47.946Z,9.16
2018-11-05T11:01:57.528Z,9.19
2018-11-05T11:03:06.878Z,9.29
2018-11-05T11:04:17.046Z,9.16
2018-11-05T11:05:27.332Z,9.21
2018-11-05T11:06:37.198Z,9.24
2018-11-05T11:07:47.072Z,9.34
2018-11-05T11:08:57.224Z,9.3
2018-11-05T11:10:07.086Z,9.34
2018-11-05T11:11:17.218Z,9.37
2018-11-05T11:12:27.358Z,9.33
2018-11-05T11:13:37.500Z,9.36
2018-11-05T11:14:47.416Z,9.37
2018-11-05T11:15:57.552Z,9.39
2018-11-05T11:17:07.132Z,9.44
2018-11-05T11:18:16.716Z,9.42
2018-11-05T11:19:26.847Z,9.45
2018-11-05T11:20:36.752Z,9.47
2018-11-05T11:21:46.885Z,9.47
2018-11-05T11:22:57.080Z,9.59
2018-11-05T11:24:06.931Z,9.56
2018-11-05T11:25:17.058Z,9.55
2018-11-05T11:26:26.688Z,9.55
2018-11-05T11:27:36.352Z,9.69
2018-11-05T11:28:46.801Z,9.66
2018-11-05T11:29:56.634Z,9.63
2018-11-05T11:31:06.496Z,9.59
2018-11-05T11:32:16.672Z,9.74
2018-11-05T11:33:26.524Z,9.64
2018-11-05T11:34:36.112Z,9.69
2018-11-05T11:35:45.969Z,9.73
2018-11-05T11:36:55.940Z,9.8
2018-11-05T11:38:06.024Z,9.76
2018-11-05T11:39:16.170Z,9.67
2018-11-05T11:40:26.020Z,9.63
2018-11-05T11:41:35.875Z,9.63
2018-11-05T11:42:45.458Z,9.63
2018-11-05T11:43:55.673Z,9.64
2018-11-05T11:45:05.808Z,9.64
2018-11-05T11:46:15.397Z,9.59
2018-11-05T11:47:25.528Z,9.62
2018-11-05T11:48:35.112Z,9.64
2018-11-05T11:49:45.288Z,9.64
2018-11-05T11:50:55.430Z,9.66
2018-11-05T11:52:05.280Z,9.64
2018-11-05T11:53:15.833Z,9.63
2018-11-05T11:54:26.499Z,9.64
2018-11-05T11:55:36.718Z,9.64
2018-11-05T11:56:46.635Z,9.56
2018-11-05T11:57:56.499Z,9.63
2018-11-05T11:59:06.374Z,9.58
2018-11-05T12:00:16.064Z,9.63
2018-11-05T12:01:26.260Z,9.54
2018-11-05T12:02:36.486Z,9.55
2018-11-05T12:03:46.367Z,9.59
2018-11-05T12:04:56.733Z,9.58
2018-11-05T12:06:06.577Z,9.49
2018-11-05T12:07:16.206Z,9.52
2018-11-05T12:08:26.079Z,9.51
2018-11-05T12:09:36.201Z,9.42
2018-11-05T12:10:46.057Z,9.42
2018-11-05T12:11:55.930Z,9.27
2018-11-05T12:13:05.832Z,9.15
2018-11-05T12:14:15.552Z,9.08
2018-11-05T12:15:25.942Z,8.84
2018-11-05T12:16:36.081Z,8.9
2018-11-05T12:17:46.221Z,8.74
2018-11-05T12:18:56.389Z,8.75
2018-11-05T12:20:05.981Z,8.61
2018-11-05T12:21:15.837Z,8.63
2018-11-05T12:22:25.414Z,8.57
2018-11-05T12:23:35.547Z,8.61
2018-11-05T12:24:45.204Z,8.6
2018-11-05T12:25:54.877Z,8.59
2018-11-05T12:27:05.016Z,8.41
2018-11-05T12:28:14.595Z,8.54
2018-11-05T12:29:24.734Z,8.41
2018-11-05T12:30:34.642Z,8.36
2018-11-05T12:31:44.499Z,8.39
2018-11-05T12:32:54.628Z,8.46
2018-11-05T12:34:04.485Z,8.38
2018-11-05T12:35:14.336Z,8.38
2018-11-05T12:36:24.528Z,8.41
2018-11-05T12:37:34.656Z,8.34
2018-11-05T12:38:44.092Z,8.36
2018-11-05T12:39:54.193Z,8.38
2018-11-05T12:41:04.340Z,8.39
2018-11-05T12:42:13.963Z,8.36
2018-11-05T12:43:24.113Z,8.41
2018-11-05T12:44:34.485Z,8.39
2018-11-05T12:45:45.120Z,8.32
2018-11-05T12:46:54.972Z,8.34
2018-11-05T12:48:04.659Z,8.35
2018-11-05T12:49:14.512Z,8.39
2018-11-05T12:50:24.687Z,8.35
2018-11-05T12:51:34.271Z,8.21
2018-11-05T12:52:44.404Z,8.23
2018-11-05T12:53:54.579Z,8.27
2018-11-05T12:55:04.714Z,8.21
2018-11-05T12:56:14.853Z,8.2
2018-11-05T12:57:24.982Z,8.32
2018-11-05T12:58:35.115Z,8.38
2018-11-05T12:59:44.752Z,8.27
2018-11-05T13:00:54.696Z,8.28
2018-11-05T13:02:04.367Z,8.34
2018-11-05T13:03:14.498Z,8.44
2018-11-05T13:04:24.239Z,8.41
2018-11-05T13:05:34.029Z,8.38
2018-11-05T13:06:43.955Z,8.45
2018-11-05T13:07:54.177Z,8.35
2018-11-05T13:09:04.032Z,8.41
2018-11-05T13:10:14.154Z,8.36
2018-11-05T13:11:23.784Z,8.44
2018-11-05T13:12:33.633Z,8.34
2018-11-05T13:13:43.482Z,8.39
2018-11-05T13:14:53.055Z,8.35
2018-11-05T13:16:02.368Z,8.36
2018-11-05T13:17:12.281Z,8.36
2018-11-05T13:18:22.403Z,8.34
2018-11-05T13:19:32.252Z,8.28
2018-11-05T13:20:42.388Z,8.31
2018-11-05T13:21:51.964Z,8.23
2018-11-05T13:23:01.321Z,8.26
2018-11-05T13:24:11.521Z,8.24
2018-11-05T13:25:21.280Z,8.24
2018-11-05T13:26:31.426Z,8.27
2018-11-05T13:27:41.552Z,8.27
2018-11-05T13:28:52.001Z,8.31
2018-11-05T13:30:02.128Z,8.28
2018-11-05T13:31:12.276Z,8.23
2018-11-05T13:32:22.415Z,8.24
2018-11-05T13:33:32.557Z,8.26
2018-11-05T13:34:42.462Z,8.26
2018-11-05T13:35:52.588Z,8.23
2018-11-05T13:37:03.315Z,8.24
2018-11-05T13:38:15.874Z,8.23
2018-11-05T13:39:26.337Z,8.23
2018-11-05T13:40:35.966Z,8.24
2018-11-05T13:41:45.540Z,8.2
2018-11-05T13:42:55.667Z,8.18
2018-11-05T13:44:05.530Z,8.23
2018-11-05T13:45:15.677Z,8.2
2018-11-05T13:46:28.223Z,8.23
2018-11-05T13:47:42.115Z,8.17
2018-11-05T13:48:58.316Z,8.17
2018-11-05T13:50:10.909Z,8.21
2018-11-05T13:51:22.250Z,8.13
2018-11-05T13:52:32.843Z,8.21
2018-11-05T13:53:42.585Z,8.11
2018-11-05T13:54:53.246Z,8.14
2018-11-05T13:56:04.942Z,8.17
2018-11-05T13:57:15.172Z,8.23
2018-11-05T13:58:25.340Z,8.23
2018-11-05T13:59:34.953Z,8.2
2018-11-05T14:00:45.088Z,8.23
2018-11-05T14:01:54.946Z,8.24
2018-11-05T14:03:04.860Z,8.18
2018-11-05T14:04:14.991Z,8.2
2018-11-05T14:05:25.118Z,8.11
2018-11-05T14:06:35.352Z,8.14
2018-11-05T14:07:45.491Z,8.11
2018-11-05T14:08:55.401Z,8.08
2018-11-05T14:10:05.256Z,8.08
2018-11-05T14:11:15.112Z,8.01
2018-11-05T14:12:25.241Z,8.09
2018-11-05T14:13:35.141Z,8.01
2018-11-05T14:14:45.371Z,7.96
2018-11-05T14:15:55.490Z,8.09
2018-11-05T14:17:04.798Z,8.02
2018-11-05T14:18:14.869Z,8.01
2018-11-05T14:19:24.875Z,7.99
2018-11-05T14:20:34.505Z,7.96
2018-11-05T14:21:44.360Z,7.96
2018-11-05T14:22:54.483Z,7.96
2018-11-05T14:24:04.624Z,7.98
2018-11-05T14:25:14.809Z,7.95
2018-11-05T14:26:24.497Z,7.88
2018-11-05T14:27:34.690Z,7.9
2018-11-05T14:28:47.645Z,7.93
2018-11-05T14:30:00.684Z,7.98
2018-11-05T14:31:11.930Z,7.93
2018-11-05T14:32:22.491Z,8.01
2018-11-05T14:33:32.626Z,7.95
2018-11-05T14:34:42.487Z,8.01
2018-11-05T14:35:52.717Z,8.01
2018-11-05T14:37:03.518Z,8.01
2018-11-05T14:38:13.733Z,8.01
2018-11-05T14:39:23.633Z,8.03
2018-11-05T14:40:33.487Z,7.99
2018-11-05T14:41:43.389Z,7.88
2018-11-05T14:42:53.367Z,7.93
2018-11-05T14:44:03.933Z,7.91
2018-11-05T14:45:13.513Z,7.98
2018-11-05T14:46:23.381Z,7.9
2018-11-05T14:47:33.241Z,7.91
2018-11-05T14:48:43.778Z,7.9
2018-11-05T14:49:54.130Z,7.84
2018-11-05T14:51:04.563Z,7.9
2018-11-05T14:52:14.588Z,7.93
2018-11-05T14:53:24.719Z,7.9
2018-11-05T14:54:34.840Z,7.95
2018-11-05T14:55:44.194Z,7.85
2018-11-05T14:56:54.060Z,7.78
2018-11-05T14:58:03.918Z,7.77
2018-11-05T14:59:12.951Z,7.74
2018-11-05T15:00:22.546Z,7.77
2018-11-05T15:01:32.781Z,7.8
2018-11-05T15:02:42.414Z,7.8
2018-11-05T15:03:52.495Z,7.74
2018-11-05T15:05:02.082Z,7.78
2018-11-05T15:06:11.937Z,7.88
2018-11-05T15:07:21.840Z,7.8
2018-11-05T15:08:31.445Z,7.8
2018-11-05T15:09:41.296Z,7.88
2018-11-05T15:10:51.419Z,7.81
2018-11-05T15:12:01.547Z,7.67
2018-11-05T15:13:11.622Z,7.8
2018-11-05T15:14:21.973Z,7.78
2018-11-05T15:15:32.100Z,7.78
2018-11-05T15:16:42.234Z,7.77
2018-11-05T15:17:51.809Z,7.72
2018-11-05T15:19:03.719Z,7.67
2018-11-05T15:20:15.225Z,7.7
2018-11-05T15:21:26.737Z,7.74
2018-11-05T15:22:36.378Z,7.7
2018-11-05T15:23:46.526Z,7.64
2018-11-05T15:24:55.884Z,7.69
2018-11-05T15:26:05.632Z,7.66
2018-11-05T15:27:16.208Z,7.61
2018-11-05T15:28:26.332Z,7.62
2018-11-05T15:29:36.518Z,7.53
2018-11-05T15:30:46.429Z,7.58
2018-11-05T15:31:56.279Z,7.59
2018-11-05T15:33:06.682Z,7.59
2018-11-05T15:34:17.097Z,7.61
2018-11-05T15:35:27.275Z,7.53